createdAt,value
2023-01-17T00:00:33.053Z,19.05
2023-01-17T00:03:00.023Z,20.30
2023-01-17T00:08:30.841Z,19.65
2023-01-17T00:13:24.098Z,18.58
2023-01-17T00:15:51.008Z,18.80
2023-01-17T00:18:18.005Z,14.77
2023-01-17T00:23:42.227Z,18.02
2023-01-17T00:31:11.250Z,10.10
2023-01-17T00:36:04.845Z,6.97
2023-01-17T00:38:33.047Z,8.35
2023-01-17T00:52:00.201Z,8.68
2023-01-17T00:54:45.548Z,9.98
2023-01-17T01:02:59.145Z,8.40
2023-01-17T01:08:37.671Z,6.03
2023-01-17T01:11:24.003Z,6.72
2023-01-17T01:14:09.462Z,6.15
2023-01-17T01:16:55.186Z,7.60
2023-01-17T01:19:40.414Z,6.40
2023-01-17T01:30:37.578Z,8.02
2023-01-17T01:33:20.716Z,6.40
2023-01-17T01:38:41.323Z,6.30
2023-01-17T01:41:08.457Z,6.30
2023-01-17T01:48:39.892Z,5.70
2023-01-17T01:51:08.953Z,6.22
2023-01-17T01:53:37.049Z,6.25
2023-01-17T01:56:06.092Z,6.32
2023-01-17T01:58:34.067Z,6.35
2023-01-17T02:01:01.012Z,6.30
2023-01-17T02:03:30.431Z,6.38
2023-01-17T02:06:01.163Z,5.68
2023-01-17T02:08:28.384Z,5.78
2023-01-17T02:10:56.406Z,6.50
2023-01-17T02:13:23.395Z,5.97
2023-01-17T02:15:56.400Z,6.13
2023-01-17T02:18:45.962Z,5.40
2023-01-17T02:21:21.567Z,5.28
2023-01-17T02:23:54.614Z,5.47
2023-01-17T02:26:30.376Z,6.05
2023-01-17T02:31:45.986Z,5.27
2023-01-17T02:34:12.876Z,5.38
2023-01-17T02:46:47.231Z,5.65
2023-01-17T02:49:15.411Z,5.80
2023-01-17T02:51:42.267Z,5.72
2023-01-17T02:54:18.175Z,6.03
2023-01-17T02:56:50.561Z,6.38
2023-01-17T02:59:36.045Z,7.20
2023-01-17T03:02:18.736Z,7.03
2023-01-17T03:09:46.183Z,7.28
2023-01-17T03:14:39.334Z,6.57
2023-01-17T03:17:06.481Z,7.07
2023-01-17T03:19:33.826Z,6.72
2023-01-17T03:22:00.971Z,5.82
2023-01-17T03:24:27.808Z,3.97
2023-01-17T03:34:12.496Z,4.22
2023-01-17T03:36:39.479Z,4.35
2023-01-17T03:39:06.383Z,4.28
2023-01-17T03:41:33.375Z,4.40
2023-01-17T03:44:01.122Z,4.30
2023-01-17T03:46:28.971Z,4.03
2023-01-17T03:51:21.676Z,4.13
2023-01-17T03:53:48.650Z,4.22
2023-01-17T03:58:41.220Z,4.25
2023-01-17T04:01:08.263Z,4.22
2023-01-17T04:03:35.369Z,4.22
2023-01-17T04:06:02.370Z,4.00
2023-01-17T04:08:29.626Z,4.00
2023-01-17T04:15:48.881Z,3.35
2023-01-17T04:18:19.793Z,5.38
2023-01-17T04:20:46.922Z,6.82
2023-01-17T04:23:13.784Z,7.07
2023-01-17T04:25:40.672Z,7.10
2023-01-17T04:28:08.613Z,8.40
2023-01-17T04:30:35.556Z,6.85
2023-01-17T04:33:02.542Z,7.13
2023-01-17T04:35:30.246Z,6.30
2023-01-17T04:37:57.393Z,6.13
2023-01-17T04:40:24.891Z,6.30
2023-01-17T04:42:52.002Z,8.63
2023-01-17T04:45:18.856Z,7.82
2023-01-17T04:47:45.891Z,6.30
2023-01-17T04:50:13.034Z,6.03
2023-01-17T04:52:39.987Z,5.28
2023-01-17T04:55:07.153Z,4.63
2023-01-17T04:57:34.148Z,4.55
2023-01-17T05:00:01.191Z,3.92
2023-01-17T05:02:28.311Z,4.57
2023-01-17T05:04:55.524Z,4.90
2023-01-17T05:07:22.473Z,4.72
2023-01-17T05:09:49.551Z,5.15
2023-01-17T05:12:16.616Z,4.88
2023-01-17T05:14:43.511Z,5.57
2023-01-17T05:19:37.084Z,5.43
2023-01-17T05:24:40.808Z,5.68
2023-01-17T05:27:08.006Z,6.88
2023-01-17T05:29:34.914Z,8.60
2023-01-17T05:32:02.089Z,9.73
2023-01-17T05:34:29.140Z,9.43
2023-01-17T05:36:56.053Z,9.52
2023-01-17T05:39:23.195Z,9.07
2023-01-17T05:41:50.200Z,8.30
2023-01-17T05:44:17.070Z,8.02
2023-01-17T05:46:44.208Z,8.57
2023-01-17T05:49:11.050Z,9.43
2023-01-17T05:51:39.693Z,7.80
2023-01-17T05:54:06.980Z,8.65
2023-01-17T05:56:34.120Z,8.00
2023-01-17T05:59:01.153Z,8.57
2023-01-17T06:01:28.474Z,8.98
2023-01-17T06:03:55.234Z,8.32
2023-01-17T06:11:13.761Z,9.27
2023-01-17T06:13:40.764Z,8.57
2023-01-17T06:16:07.941Z,8.75
2023-01-17T06:18:35.029Z,8.13
2023-01-17T06:23:28.428Z,8.38
2023-01-17T06:25:55.411Z,7.88
2023-01-17T06:28:23.164Z,12.48
2023-01-17T06:33:15.852Z,18.77
2023-01-17T06:35:49.706Z,23.02
2023-01-17T06:43:07.952Z,20.33
2023-01-17T06:50:29.569Z,18.25
2023-01-17T07:02:41.692Z,16.67
2023-01-17T07:05:08.796Z,19.67
2023-01-17T07:07:35.961Z,15.93
2023-01-17T07:14:54.939Z,10.82
2023-01-17T07:22:12.815Z,14.38
2023-01-17T07:27:07.316Z,14.98
2023-01-17T07:29:34.405Z,14.60
2023-01-17T07:32:01.911Z,14.23
2023-01-17T07:34:28.816Z,13.55
2023-01-17T07:36:55.779Z,12.63
2023-01-17T07:39:22.834Z,12.38
2023-01-17T07:46:40.989Z,13.93
2023-01-17T07:49:07.921Z,17.63
2023-01-17T07:51:34.966Z,17.52
2023-01-17T07:54:01.855Z,9.20
2023-01-17T07:56:28.855Z,8.85
2023-01-17T07:58:55.716Z,11.50
2023-01-17T08:08:44.593Z,11.93
2023-01-17T08:11:12.670Z,15.00
2023-01-17T08:13:40.372Z,18.95
2023-01-17T08:18:33.106Z,12.85
2023-01-17T08:21:00.117Z,10.93
2023-01-17T08:23:27.226Z,11.80
2023-01-17T08:25:54.192Z,10.38
2023-01-17T08:28:21.103Z,10.02
2023-01-17T08:33:22.446Z,9.18
2023-01-17T08:40:45.088Z,9.85
2023-01-17T08:43:12.259Z,11.02
2023-01-17T08:45:43.674Z,13.55
2023-01-17T08:48:10.601Z,12.80
2023-01-17T08:53:03.247Z,10.63
2023-01-17T08:55:30.250Z,10.98
2023-01-17T08:57:57.658Z,11.98
2023-01-17T09:00:24.519Z,10.77
2023-01-17T09:02:53.215Z,11.75
2023-01-17T09:07:45.701Z,10.73
2023-01-17T09:10:12.763Z,17.83
2023-01-17T09:12:40.521Z,16.98
2023-01-17T09:15:07.886Z,10.80
2023-01-17T09:17:34.911Z,14.23
2023-01-17T09:20:02.111Z,27.02
2023-01-17T09:24:54.714Z,17.55
2023-01-17T09:27:21.673Z,13.80
2023-01-17T09:29:48.583Z,9.93
2023-01-17T09:32:17.268Z,13.32
2023-01-17T09:34:44.502Z,20.77
2023-01-17T09:39:36.971Z,8.25
2023-01-17T09:42:09.616Z,7.65
2023-01-17T09:47:30.419Z,7.70
2023-01-17T09:50:00.020Z,8.48
2023-01-17T09:52:30.003Z,8.82
2023-01-17T09:54:56.932Z,8.75
2023-01-17T09:57:29.815Z,7.70
2023-01-17T10:00:03.596Z,8.50
2023-01-17T10:05:26.785Z,8.63
2023-01-17T10:08:12.191Z,8.20
2023-01-17T10:10:43.354Z,9.77
2023-01-17T10:16:23.981Z,11.15
2023-01-17T10:18:58.978Z,14.43
2023-01-17T10:21:28.614Z,10.00
2023-01-17T10:26:49.048Z,10.68
2023-01-17T10:31:51.459Z,9.35
2023-01-17T10:39:21.845Z,8.45
2023-01-17T10:42:09.015Z,9.25
2023-01-17T10:44:48.379Z,8.52
2023-01-17T10:47:19.693Z,9.00
2023-01-17T10:49:47.916Z,8.50
2023-01-17T11:04:54.594Z,8.27
2023-01-17T11:07:28.953Z,7.22
2023-01-17T11:09:57.035Z,6.55
2023-01-17T11:12:34.280Z,5.80
2023-01-17T11:22:37.899Z,6.85
2023-01-17T11:25:05.106Z,6.05
2023-01-17T11:27:34.192Z,6.75
2023-01-17T11:30:18.103Z,6.78
2023-01-17T11:32:54.944Z,5.47
2023-01-17T11:35:29.163Z,5.75
2023-01-17T11:37:58.910Z,6.20
2023-01-17T11:40:28.046Z,5.65
2023-01-17T11:43:02.889Z,5.72
2023-01-17T11:45:31.200Z,5.90
2023-01-17T11:48:05.206Z,5.28
2023-01-17T11:50:32.195Z,5.93
2023-01-17T11:58:26.927Z,6.72
2023-01-17T12:01:20.349Z,6.25
2023-01-17T12:03:47.222Z,7.43
2023-01-17T12:06:18.144Z,10.73
2023-01-17T12:08:44.912Z,7.65
2023-01-17T12:14:10.980Z,6.22
2023-01-17T12:29:02.977Z,5.80
2023-01-17T12:31:33.668Z,6.07
2023-01-17T12:34:09.910Z,7.43
2023-01-17T12:36:43.791Z,4.95
2023-01-17T12:39:14.358Z,5.18
2023-01-17T12:54:56.432Z,6.03
2023-01-17T12:57:25.592Z,18.17
2023-01-17T13:00:02.051Z,9.55
2023-01-17T13:02:31.839Z,12.38
2023-01-17T13:05:05.568Z,15.25
2023-01-17T13:07:38.101Z,20.02
2023-01-17T13:10:07.861Z,17.75
2023-01-17T13:12:37.974Z,16.25
2023-01-17T13:15:13.955Z,9.88
2023-01-17T13:17:45.186Z,6.72
2023-01-17T13:20:17.801Z,12.52
2023-01-17T13:22:44.967Z,5.10
2023-01-17T13:25:23.835Z,5.82
2023-01-17T13:30:31.063Z,4.78
2023-01-17T13:33:04.548Z,4.95
2023-01-17T13:50:48.863Z,5.50
2023-01-17T13:53:34.144Z,4.68
2023-01-17T14:03:51.835Z,5.47
2023-01-17T14:09:02.946Z,5.90
2023-01-17T14:11:32.703Z,5.80
2023-01-17T14:16:46.335Z,5.78
2023-01-17T14:19:26.320Z,5.78
2023-01-17T14:22:13.122Z,6.97
2023-01-17T14:24:59.016Z,9.02
2023-01-17T14:27:27.458Z,8.52
2023-01-17T14:30:00.665Z,10.35
2023-01-17T14:42:24.959Z,12.63
2023-01-17T14:44:53.391Z,11.73
2023-01-17T14:49:46.091Z,12.40
2023-01-17T14:52:17.633Z,10.93
2023-01-17T14:57:26.058Z,14.88
2023-01-17T15:00:08.776Z,11.45
2023-01-17T15:02:39.984Z,13.77
2023-01-17T15:05:07.085Z,13.18
2023-01-17T15:07:34.262Z,16.10
2023-01-17T15:10:04.072Z,14.75
2023-01-17T15:12:31.032Z,9.20
2023-01-17T15:17:26.946Z,14.20
2023-01-17T15:20:01.912Z,11.48
2023-01-17T15:24:55.965Z,14.02
2023-01-17T15:27:25.015Z,13.77
2023-01-17T15:29:52.250Z,10.65
2023-01-17T15:32:19.161Z,9.55
2023-01-17T15:34:47.026Z,15.80
2023-01-17T15:39:48.453Z,14.63
2023-01-17T15:44:53.309Z,12.77
2023-01-17T15:54:55.477Z,13.05
2023-01-17T15:57:37.206Z,14.55
2023-01-17T16:00:11.093Z,13.25
2023-01-17T16:02:39.486Z,19.95
2023-01-17T16:10:16.616Z,14.63
2023-01-17T16:15:12.826Z,18.35
2023-01-17T16:17:42.634Z,17.85
2023-01-17T16:27:42.770Z,12.27
2023-01-17T16:30:11.013Z,14.45
2023-01-17T16:42:20.263Z,15.25
2023-01-17T16:44:47.481Z,10.20
2023-01-17T16:47:14.379Z,16.20
2023-01-17T16:52:06.981Z,12.73
2023-01-17T16:54:34.443Z,15.65
2023-01-17T17:04:18.743Z,16.27
2023-01-17T17:06:46.375Z,16.73
2023-01-17T17:09:13.226Z,16.58
2023-01-17T17:11:42.172Z,15.15
2023-01-17T17:14:09.735Z,17.35
2023-01-17T17:19:03.792Z,21.45
2023-01-17T17:21:31.292Z,22.13
2023-01-17T17:23:59.195Z,22.90
2023-01-17T17:26:27.526Z,23.25
2023-01-17T17:28:54.666Z,26.77
2023-01-17T17:31:21.841Z,24.13
2023-01-17T17:38:52.151Z,26.63
2023-01-17T17:41:30.011Z,26.80
2023-01-17T17:46:23.874Z,26.17
2023-01-17T17:48:51.138Z,28.85
2023-01-17T17:53:52.801Z,25.70
2023-01-17T17:56:20.778Z,28.27
2023-01-17T17:58:48.011Z,30.15
2023-01-17T18:01:15.224Z,29.58
2023-01-17T18:03:42.995Z,27.80
2023-01-17T18:06:11.658Z,27.77
2023-01-17T18:08:39.283Z,28.77
2023-01-17T18:11:08.046Z,25.83
2023-01-17T18:13:35.105Z,25.27
2023-01-17T18:16:08.372Z,27.35
2023-01-17T18:21:05.696Z,27.15
2023-01-17T18:23:33.752Z,29.60
2023-01-17T18:28:27.415Z,26.92
2023-01-17T18:30:54.317Z,26.50
2023-01-17T18:38:20.387Z,27.42
2023-01-17T18:45:38.958Z,29.25
2023-01-17T18:48:06.096Z,29.58
2023-01-17T18:50:33.243Z,29.70
2023-01-17T18:57:51.259Z,29.75
2023-01-17T19:00:19.823Z,28.75
2023-01-17T19:02:48.994Z,27.52
2023-01-17T19:05:18.027Z,28.63
2023-01-17T19:07:45.038Z,28.73
2023-01-17T19:15:03.167Z,31.40
2023-01-17T19:17:30.012Z,31.65
2023-01-17T19:19:57.210Z,30.25
2023-01-17T19:22:24.297Z,32.20
2023-01-17T19:24:53.214Z,32.38
2023-01-17T19:27:20.715Z,31.77
2023-01-17T19:29:47.582Z,36.83
2023-01-17T19:32:14.469Z,33.40
2023-01-17T19:34:43.531Z,41.33
2023-01-17T19:39:35.976Z,33.88
2023-01-17T19:42:02.952Z,31.20
2023-01-17T19:44:30.226Z,45.22
2023-01-17T19:46:57.110Z,44.20
2023-01-17T19:49:24.925Z,37.15
2023-01-17T19:56:43.193Z,37.55
2023-01-17T20:04:02.409Z,29.45
2023-01-17T20:08:57.540Z,35.85
2023-01-17T20:11:25.120Z,29.23
2023-01-17T20:13:56.169Z,27.70
2023-01-17T20:19:25.599Z,28.25
2023-01-17T20:21:52.967Z,29.63
2023-01-17T20:24:19.988Z,28.70
2023-01-17T20:29:16.282Z,29.35
2023-01-17T20:31:44.056Z,28.20
2023-01-17T20:34:12.523Z,27.92
2023-01-17T20:36:40.773Z,30.60
2023-01-17T20:41:38.260Z,30.63
2023-01-17T20:44:06.467Z,29.58
2023-01-17T20:46:35.759Z,29.08
2023-01-17T20:51:31.326Z,27.50
2023-01-17T20:53:59.893Z,33.45
2023-01-17T20:58:53.182Z,29.15
2023-01-17T21:01:21.639Z,30.70
2023-01-17T21:03:51.254Z,29.83
2023-01-17T21:06:19.356Z,24.02
2023-01-17T21:08:46.705Z,25.75
2023-01-17T21:11:15.507Z,24.77
2023-01-17T21:13:43.125Z,24.23
2023-01-17T21:16:11.887Z,28.02
2023-01-17T21:18:38.918Z,27.23
2023-01-17T21:21:10.997Z,24.45
2023-01-17T21:28:34.383Z,27.92
2023-01-17T21:35:55.402Z,33.65
2023-01-17T21:40:47.829Z,37.65
2023-01-17T21:43:16.659Z,24.52
2023-01-17T21:48:13.415Z,19.80
2023-01-17T21:50:40.393Z,20.83
2023-01-17T21:53:08.069Z,21.60
2023-01-17T21:55:53.156Z,25.67
2023-01-17T21:58:38.266Z,32.42
2023-01-17T22:01:11.203Z,36.88
2023-01-17T22:03:38.258Z,39.05
2023-01-17T22:13:31.456Z,77.80
2023-01-17T22:18:25.359Z,57.97
2023-01-17T22:20:52.329Z,42.97
2023-01-17T22:23:19.364Z,44.55
2023-01-17T22:25:46.506Z,49.78
2023-01-17T22:28:13.501Z,46.70
2023-01-17T22:30:40.411Z,63.33
2023-01-17T22:33:07.516Z,68.53
2023-01-17T22:35:34.367Z,57.92
2023-01-17T22:57:27.562Z,38.08
2023-01-17T22:59:55.328Z,36.85
2023-01-17T23:02:22.362Z,37.85
2023-01-17T23:12:06.745Z,36.33
2023-01-17T23:14:52.773Z,33.63
2023-01-17T23:17:41.563Z,30.85
2023-01-17T23:25:08.301Z,30.52
2023-01-17T23:27:57.174Z,30.83
2023-01-17T23:40:42.068Z,27.33
2023-01-17T23:43:24.934Z,26.70
2023-01-17T23:58:07.906Z,28.02
